createdAt,value
2018-11-04T00:01:59.462Z,66.57
2018-11-04T00:04:28.689Z,69.67
2018-11-04T00:06:57.991Z,80.50
2018-11-04T00:09:27.249Z,73.57
2018-11-04T00:11:56.456Z,72.80
2018-11-04T00:14:25.711Z,70.70
2018-11-04T00:16:55.143Z,70.43
2018-11-04T00:19:24.363Z,73.30
2018-11-04T00:21:53.591Z,69.17
2018-11-04T00:24:22.862Z,76.17
2018-11-04T00:26:52.257Z,80.63
2018-11-04T00:29:21.559Z,76.67
2018-11-04T00:31:50.726Z,78.70
2018-11-04T00:34:20.160Z,74.30
2018-11-04T00:36:49.575Z,75.90
2018-11-04T00:39:18.886Z,75.60
2018-11-04T00:41:48.324Z,74.90
2018-11-04T00:44:17.517Z,78.17
2018-11-04T00:46:46.823Z,77.67
2018-11-04T00:49:16.058Z,84.67
2018-11-04T00:51:45.427Z,82.40
2018-11-04T00:54:14.878Z,81.07
2018-11-04T00:56:44.243Z,82.50
2018-11-04T00:59:13.427Z,82.33
2018-11-04T01:01:42.827Z,82.47
2018-11-04T01:04:12.199Z,80.43
2018-11-04T01:06:41.543Z,82.77
2018-11-04T01:09:11.448Z,87.00
2018-11-04T01:11:40.767Z,83.03
2018-11-04T01:14:10.130Z,94.10
2018-11-04T01:16:39.537Z,90.80
2018-11-04T01:19:08.779Z,100.80
2018-11-04T01:21:38.214Z,92.17
2018-11-04T01:24:07.470Z,88.43
2018-11-04T01:26:36.747Z,81.60
2018-11-04T01:29:06.500Z,87.37
2018-11-04T01:31:36.148Z,95.90
2018-11-04T01:34:05.589Z,87.97
2018-11-04T01:36:34.857Z,85.20
2018-11-04T01:39:05.107Z,78.63
2018-11-04T01:41:34.446Z,86.30
2018-11-04T01:44:03.602Z,78.90
2018-11-04T01:46:32.797Z,79.97
2018-11-04T01:49:02.058Z,93.50
2018-11-04T01:51:31.401Z,77.33
2018-11-04T01:54:00.791Z,91.03
2018-11-04T01:56:29.994Z,91.03
2018-11-04T01:58:59.238Z,88.37
2018-11-04T02:01:28.490Z,80.90
2018-11-04T02:03:57.809Z,95.10
2018-11-04T02:06:27.411Z,90.90
2018-11-04T02:08:56.773Z,102.93
2018-11-04T02:11:26.223Z,96.53
2018-11-04T02:13:55.650Z,89.07
2018-11-04T02:16:24.868Z,94.03
2018-11-04T02:18:54.072Z,107.33
2018-11-04T02:21:23.298Z,96.57
2018-11-04T02:23:52.555Z,94.77
2018-11-04T02:26:21.834Z,100.37
2018-11-04T02:28:51.157Z,94.97
2018-11-04T02:31:20.474Z,110.80
2018-11-04T02:33:49.787Z,96.87
2018-11-04T02:36:19.143Z,103.47
2018-11-04T02:38:48.395Z,107.20
2018-11-04T02:41:17.757Z,107.80
2018-11-04T02:43:46.987Z,95.80
2018-11-04T02:46:16.335Z,88.37
2018-11-04T02:48:45.599Z,90.57
2018-11-04T02:51:14.910Z,92.13
2018-11-04T02:53:44.215Z,96.07
2018-11-04T02:56:13.415Z,95.03
2018-11-04T02:58:42.677Z,88.37
2018-11-04T03:01:12.052Z,97.67
2018-11-04T03:03:42.390Z,104.27
2018-11-04T03:06:11.699Z,99.73
2018-11-04T03:08:40.995Z,94.27
2018-11-04T03:11:10.275Z,100.47
2018-11-04T03:13:39.631Z,97.53
2018-11-04T03:16:09.795Z,96.30
2018-11-04T03:18:41.436Z,110.20
2018-11-04T03:21:10.653Z,100.47
2018-11-04T03:23:39.894Z,97.63
2018-11-04T03:26:09.335Z,102.60
2018-11-04T03:28:38.697Z,104.30
2018-11-04T03:31:08.034Z,93.80
2018-11-04T03:33:37.303Z,97.97
2018-11-04T03:36:06.807Z,92.77
2018-11-04T03:38:36.118Z,101.13
2018-11-04T03:41:05.851Z,97.77
2018-11-04T03:43:35.131Z,91.17
2018-11-04T03:46:04.662Z,95.13
2018-11-04T03:48:33.938Z,90.60
2018-11-04T03:51:03.322Z,97.97
2018-11-04T03:53:32.598Z,88.67
2018-11-04T03:56:01.917Z,90.00
2018-11-04T03:58:31.247Z,96.33
2018-11-04T04:01:00.626Z,93.07
2018-11-04T04:03:30.006Z,91.20
2018-11-04T04:05:59.283Z,88.67
2018-11-04T04:08:29.229Z,108.70
2018-11-04T04:10:58.445Z,96.83
2018-11-04T04:13:27.675Z,104.73
2018-11-04T04:15:57.085Z,92.57
2018-11-04T04:18:26.327Z,89.97
2018-11-04T04:21:10.847Z,96.60
2018-11-04T04:23:41.372Z,98.37
2018-11-04T04:26:11.682Z,84.13
2018-11-04T04:28:41.503Z,90.77
2018-11-04T04:31:10.798Z,85.20
2018-11-04T04:33:40.102Z,103.40
2018-11-04T04:36:09.363Z,86.87
2018-11-04T04:38:38.749Z,83.73
2018-11-04T04:41:08.290Z,92.27
2018-11-04T04:43:37.544Z,92.00
2018-11-04T04:46:07.002Z,85.13
2018-11-04T04:48:36.287Z,90.03
2018-11-04T04:51:05.735Z,75.23
2018-11-04T04:53:35.102Z,84.13
2018-11-04T04:56:04.374Z,90.30
2018-11-04T04:58:33.686Z,78.20
2018-11-04T05:01:03.108Z,78.30
2018-11-04T05:03:32.430Z,75.97
2018-11-04T05:06:01.710Z,68.70
2018-11-04T05:08:30.910Z,80.53
2018-11-04T05:11:00.258Z,81.83
2018-11-04T05:13:29.493Z,73.70
2018-11-04T05:15:58.943Z,74.17
2018-11-04T05:18:28.246Z,71.97
2018-11-04T05:20:57.485Z,81.93
2018-11-04T05:23:26.830Z,79.00
2018-11-04T05:25:56.245Z,81.93
2018-11-04T05:28:26.051Z,77.37
2018-11-04T05:30:55.327Z,76.13
2018-11-04T05:33:24.645Z,78.70
2018-11-04T05:35:53.972Z,73.77
2018-11-04T05:38:23.378Z,75.07
2018-11-04T05:40:52.612Z,78.07
2018-11-04T05:43:21.888Z,76.57
2018-11-04T05:45:51.807Z,77.53
2018-11-04T05:48:21.134Z,74.97
2018-11-04T05:50:50.538Z,74.67
2018-11-04T05:53:19.870Z,79.87
2018-11-04T05:55:49.035Z,77.33
2018-11-04T05:58:18.227Z,76.67
2018-11-04T06:00:47.475Z,75.97
2018-11-04T06:03:16.750Z,73.23
2018-11-04T06:05:46.110Z,83.90
2018-11-04T06:08:15.427Z,79.70
2018-11-04T06:10:44.738Z,78.83
2018-11-04T06:13:14.062Z,84.07
2018-11-04T06:15:43.340Z,84.43
2018-11-04T06:18:12.718Z,81.20
2018-11-04T06:20:41.917Z,79.63
2018-11-04T06:23:11.135Z,73.60
2018-11-04T06:25:40.422Z,83.80
2018-11-04T06:28:09.758Z,76.23
2018-11-04T06:30:39.083Z,81.97
2018-11-04T06:33:08.444Z,81.33
2018-11-04T06:35:37.724Z,80.73
2018-11-04T06:38:07.286Z,68.70
2018-11-04T06:40:36.542Z,81.03
2018-11-04T06:43:05.863Z,87.23
2018-11-04T06:45:35.154Z,85.53
2018-11-04T06:48:04.539Z,78.47
2018-11-04T06:50:33.939Z,76.90
2018-11-04T06:53:03.170Z,88.03
2018-11-04T06:55:32.387Z,89.53
2018-11-04T06:58:01.635Z,75.97
2018-11-04T07:00:30.874Z,79.13
2018-11-04T07:03:00.275Z,83.73
2018-11-04T07:05:29.632Z,83.13
2018-11-04T07:07:58.955Z,67.00
2018-11-04T07:10:28.222Z,73.83
2018-11-04T07:12:57.562Z,73.93
2018-11-04T07:15:26.936Z,75.70
2018-11-04T07:17:56.318Z,67.03
2018-11-04T07:20:25.702Z,73.97
2018-11-04T07:22:55.082Z,75.80
2018-11-04T07:25:24.483Z,70.63
2018-11-04T07:27:53.812Z,73.07
2018-11-04T07:30:23.103Z,72.80
2018-11-04T07:32:52.582Z,73.73
2018-11-04T07:35:22.778Z,71.80
2018-11-04T07:37:52.096Z,68.20
2018-11-04T07:40:21.357Z,71.43
2018-11-04T07:42:50.638Z,70.03
2018-11-04T07:45:19.998Z,65.23
2018-11-04T07:47:49.328Z,66.20
2018-11-04T07:50:18.600Z,68.73
2018-11-04T07:52:48.660Z,68.17
2018-11-04T07:55:18.064Z,70.87
2018-11-04T07:57:47.418Z,71.23
2018-11-04T08:00:17.058Z,63.47
2018-11-04T08:02:46.442Z,73.97
2018-11-04T08:05:15.856Z,72.03
2018-11-04T08:07:45.043Z,75.30
2018-11-04T08:10:14.990Z,69.47
2018-11-04T08:12:44.576Z,71.20
2018-11-04T08:15:13.855Z,69.00
2018-11-04T08:17:43.094Z,70.33
2018-11-04T08:20:12.269Z,71.00
2018-11-04T08:22:41.891Z,70.90
2018-11-04T08:25:11.163Z,67.47
2018-11-04T08:27:40.537Z,77.80
2018-11-04T08:30:10.040Z,71.37
2018-11-04T08:32:39.464Z,63.37
2018-11-04T08:35:08.869Z,75.00
2018-11-04T08:37:38.222Z,70.83
2018-11-04T08:40:08.262Z,71.37
2018-11-04T08:42:37.282Z,75.53
2018-11-04T08:45:07.918Z,70.17
2018-11-04T08:47:37.118Z,65.90
2018-11-04T08:50:07.955Z,68.83
2018-11-04T08:52:37.220Z,61.80
2018-11-04T08:55:07.854Z,61.77
2018-11-04T08:57:37.148Z,66.30
2018-11-04T09:00:08.249Z,65.10
2018-11-04T09:02:37.662Z,60.53
2018-11-04T09:05:07.676Z,62.40
2018-11-04T09:07:36.960Z,62.17
2018-11-04T09:10:13.195Z,61.93
2018-11-04T09:12:43.295Z,72.63
2018-11-04T09:15:12.947Z,64.13
2018-11-04T09:17:42.414Z,64.00
2018-11-04T09:20:13.056Z,66.37
2018-11-04T09:22:43.178Z,60.43
2018-11-04T09:25:12.951Z,60.77
2018-11-04T09:27:42.314Z,60.60
2018-11-04T09:30:13.761Z,63.00
2018-11-04T09:32:43.081Z,60.83
2018-11-04T09:35:12.753Z,63.23
2018-11-04T09:37:42.111Z,53.57
2018-11-04T09:40:12.605Z,57.37
2018-11-04T09:42:42.394Z,60.30
2018-11-04T09:45:12.110Z,61.47
2018-11-04T09:47:41.345Z,52.43
2018-11-04T09:50:12.147Z,63.43
2018-11-04T09:52:41.607Z,56.60
2018-11-04T09:55:11.885Z,52.63
2018-11-04T09:57:41.279Z,61.70
2018-11-04T10:00:12.146Z,54.80
2018-11-04T10:02:41.809Z,49.40
2018-11-04T10:05:11.631Z,55.47
2018-11-04T10:07:41.074Z,56.90
2018-11-04T10:10:12.399Z,56.33
2018-11-04T10:12:42.949Z,62.07
2018-11-04T10:15:12.174Z,57.80
2018-11-04T10:17:42.042Z,61.37
2018-11-04T10:20:12.506Z,57.60
2018-11-04T10:22:42.007Z,53.33
2018-11-04T10:25:12.490Z,52.83
2018-11-04T10:27:42.401Z,51.77
2018-11-04T10:30:15.658Z,55.80
2018-11-04T10:32:45.210Z,56.27
2018-11-04T10:35:14.517Z,59.57
2018-11-04T10:37:44.132Z,58.33
2018-11-04T10:40:13.766Z,55.20
2018-11-04T10:42:42.999Z,57.40
2018-11-04T10:45:12.739Z,75.47
2018-11-04T10:47:42.050Z,63.90
2018-11-04T10:50:12.495Z,58.50
2018-11-04T10:52:41.847Z,63.90
2018-11-04T10:55:11.706Z,57.33
2018-11-04T10:57:41.177Z,59.40
2018-11-04T11:00:16.171Z,61.83
2018-11-04T11:02:46.045Z,69.73
2018-11-04T11:05:15.454Z,69.17
2018-11-04T11:07:45.323Z,151.50
2018-11-04T11:10:14.641Z,65.00
2018-11-04T11:12:43.875Z,67.90
2018-11-04T11:15:13.082Z,63.67
2018-11-04T11:17:42.422Z,100.13
2018-11-04T11:20:12.673Z,86.13
2018-11-04T11:22:42.520Z,73.70
2018-11-04T11:25:12.070Z,67.13
2018-11-04T11:27:41.321Z,67.20
2018-11-04T11:30:10.781Z,68.37
2018-11-04T11:32:39.983Z,79.67
2018-11-04T11:35:10.311Z,77.00
2018-11-04T11:37:39.669Z,77.43
2018-11-04T11:40:09.785Z,73.93
2018-11-04T11:42:39.183Z,72.60
2018-11-04T11:45:09.194Z,78.40
2018-11-04T11:47:38.518Z,74.43
2018-11-04T11:50:08.311Z,88.60
2018-11-04T11:52:37.755Z,76.60
2018-11-04T11:55:07.383Z,76.03
2018-11-04T11:57:36.686Z,72.20
2018-11-04T12:00:08.117Z,73.93
2018-11-04T12:02:37.807Z,76.70
2018-11-04T12:05:08.088Z,75.90
2018-11-04T12:07:37.460Z,81.90
2018-11-04T12:10:08.716Z,84.97
2018-11-04T12:12:38.171Z,79.30
2018-11-04T12:15:09.022Z,77.97
2018-11-04T12:17:38.402Z,76.90
2018-11-04T12:20:09.632Z,78.27
2018-11-04T12:22:39.074Z,88.37
2018-11-04T12:25:10.161Z,79.27
2018-11-04T12:27:39.458Z,80.30
2018-11-04T12:30:10.847Z,81.87
2018-11-04T12:32:40.224Z,81.27
2018-11-04T12:35:10.921Z,77.33
2018-11-04T12:37:40.417Z,78.97
2018-11-04T12:40:11.527Z,81.53
2018-11-04T12:42:40.877Z,86.87
2018-11-04T12:45:11.595Z,81.40
2018-11-04T12:47:40.939Z,81.80
2018-11-04T12:50:11.435Z,84.93
2018-11-04T12:52:40.878Z,85.10
2018-11-04T12:55:10.445Z,83.27
2018-11-04T12:57:39.774Z,89.00
2018-11-04T13:00:12.727Z,93.97
2018-11-04T13:02:43.520Z,88.70
2018-11-04T13:05:12.970Z,89.37
2018-11-04T13:07:43.431Z,86.87
2018-11-04T13:10:14.240Z,99.63
2018-11-04T13:12:43.536Z,88.17
2018-11-04T13:15:14.071Z,86.80
2018-11-04T13:17:43.948Z,89.40
2018-11-04T13:20:13.475Z,91.33
2018-11-04T13:22:42.843Z,92.73
2018-11-04T13:25:12.226Z,93.60
2018-11-04T13:27:41.574Z,86.90
2018-11-04T13:30:12.366Z,92.63
2018-11-04T13:32:41.707Z,102.27
2018-11-04T13:35:11.263Z,99.13
2018-11-04T13:37:41.682Z,91.90
2018-11-04T13:40:11.975Z,90.00
2018-11-04T13:42:41.762Z,84.73
2018-11-04T13:45:11.591Z,88.93
2018-11-04T13:47:40.878Z,91.73
2018-11-04T13:50:11.970Z,95.63
2018-11-04T13:52:41.108Z,94.30
2018-11-04T13:55:10.259Z,95.30
2018-11-04T13:57:40.109Z,100.87
2018-11-04T14:00:13.878Z,88.00
2018-11-04T14:02:44.150Z,90.47
2018-11-04T14:05:13.407Z,98.20
2018-11-04T14:07:42.827Z,95.60
2018-11-04T14:10:13.546Z,97.70
2018-11-04T14:12:43.541Z,95.83
2018-11-04T14:15:13.550Z,93.43
2018-11-04T14:17:42.949Z,88.57
2018-11-04T14:20:13.077Z,89.23
2018-11-04T14:22:42.377Z,97.97
2018-11-04T14:25:12.539Z,97.70
2018-11-04T14:27:41.942Z,85.63
2018-11-04T14:30:13.471Z,90.20
2018-11-04T14:32:43.898Z,85.13
2018-11-04T14:35:13.517Z,90.87
2018-11-04T14:37:43.539Z,91.50
2018-11-04T14:40:14.264Z,85.77
2018-11-04T14:42:44.310Z,89.60
2018-11-04T14:45:13.671Z,86.40
2018-11-04T14:47:42.938Z,84.83
2018-11-04T14:50:18.188Z,82.83
2018-11-04T14:52:48.033Z,86.40
2018-11-04T14:55:17.401Z,87.50
2018-11-04T14:57:46.644Z,92.93
2018-11-04T15:00:16.864Z,93.50
2018-11-04T15:02:46.152Z,83.47
2018-11-04T15:05:15.417Z,85.13
2018-11-04T15:07:44.635Z,88.67
2018-11-04T15:10:15.562Z,93.67
2018-11-04T15:12:45.059Z,89.90
2018-11-04T15:15:15.914Z,88.87
2018-11-04T15:17:45.159Z,87.07
2018-11-04T15:20:14.411Z,97.87
2018-11-04T15:22:51.448Z,90.97
2018-11-04T15:25:21.674Z,94.57
2018-11-04T15:27:51.015Z,92.20
2018-11-04T15:30:20.353Z,92.43
2018-11-04T15:32:49.743Z,89.20
2018-11-04T15:35:19.162Z,101.87
2018-11-04T15:37:48.532Z,98.30
2018-11-04T15:40:18.287Z,98.97
2018-11-04T15:42:47.500Z,109.87
2018-11-04T15:45:17.303Z,110.17
2018-11-04T15:47:46.662Z,107.77
2018-11-04T15:50:17.449Z,101.90
2018-11-04T15:52:47.304Z,97.00
2018-11-04T15:55:16.688Z,103.60
2018-11-04T15:57:45.990Z,105.17
2018-11-04T16:00:15.921Z,101.40
2018-11-04T16:02:45.211Z,99.47
2018-11-04T16:05:15.054Z,96.43
2018-11-04T16:07:44.276Z,96.70
2018-11-04T16:10:13.829Z,96.17
2018-11-04T16:12:43.131Z,104.17
2018-11-04T16:15:14.122Z,106.37
2018-11-04T16:17:44.016Z,97.37
2018-11-04T16:20:14.573Z,100.63
2018-11-04T16:22:45.101Z,103.73
2018-11-04T16:25:14.826Z,101.70
2018-11-04T16:27:44.346Z,91.00
2018-11-04T16:30:14.739Z,93.47
2018-11-04T16:32:44.233Z,98.67
2018-11-04T16:35:14.266Z,116.30
2018-11-04T16:37:44.501Z,96.60
2018-11-04T16:40:13.839Z,102.50
2018-11-04T16:42:43.621Z,91.13
2018-11-04T16:45:14.734Z,94.00
2018-11-04T16:47:44.030Z,95.63
2018-11-04T16:50:14.269Z,100.67
2018-11-04T16:52:44.344Z,100.03
2018-11-04T16:55:14.054Z,91.60
2018-11-04T16:57:43.774Z,104.60
2018-11-04T17:00:13.227Z,99.67
2018-11-04T17:02:42.449Z,105.67
2018-11-04T17:05:12.518Z,94.73
2018-11-04T17:07:42.099Z,92.53
2018-11-04T17:10:11.488Z,87.50
2018-11-04T17:12:40.849Z,104.37
2018-11-04T17:15:11.927Z,97.03
2018-11-04T17:17:41.676Z,93.67
2018-11-04T17:20:14.040Z,88.53
2018-11-04T17:22:43.924Z,106.47
2018-11-04T17:25:13.329Z,94.77
2018-11-04T17:27:42.964Z,102.20
2018-11-04T17:30:14.336Z,104.27
2018-11-04T17:32:43.886Z,97.43
2018-11-04T17:35:14.317Z,93.60
2018-11-04T17:37:43.866Z,97.63
2018-11-04T17:40:14.020Z,96.40
2018-11-04T17:42:43.352Z,87.27
2018-11-04T17:45:13.798Z,88.03
2018-11-04T17:47:43.123Z,95.53
2018-11-04T17:50:14.665Z,92.07
2018-11-04T17:52:44.274Z,87.07
2018-11-04T17:55:13.593Z,87.73
2018-11-04T17:57:42.938Z,81.07
2018-11-04T18:00:13.506Z,82.53
2018-11-04T18:02:43.322Z,81.87
2018-11-04T18:05:13.177Z,79.70
2018-11-04T18:07:43.261Z,82.87
2018-11-04T18:10:13.518Z,75.67
2018-11-04T18:12:42.838Z,78.00
2018-11-04T18:15:12.949Z,80.30
2018-11-04T18:17:42.246Z,80.83
2018-11-04T18:20:12.151Z,75.57
2018-11-04T18:22:41.491Z,81.73
2018-11-04T18:25:11.813Z,78.90
2018-11-04T18:27:41.051Z,76.97
2018-11-04T18:30:13.797Z,70.40
2018-11-04T18:32:43.424Z,70.27
2018-11-04T18:35:12.870Z,72.00
2018-11-04T18:37:42.319Z,75.30
2018-11-04T18:40:13.507Z,69.07
2018-11-04T18:42:43.334Z,74.47
2018-11-04T18:45:13.721Z,66.17
2018-11-04T18:47:43.303Z,66.90
2018-11-04T18:50:14.039Z,69.90
2018-11-04T18:52:43.512Z,67.53
2018-11-04T18:55:13.265Z,70.27
2018-11-04T18:57:43.371Z,70.60
2018-11-04T19:00:17.050Z,70.50
2018-11-04T19:02:48.183Z,67.97
2018-11-04T19:05:17.428Z,64.73
2018-11-04T19:07:47.071Z,70.07
2018-11-04T19:10:17.758Z,77.80
2018-11-04T19:12:47.015Z,65.00
2018-11-04T19:15:16.339Z,73.17
2018-11-04T19:17:45.534Z,67.27
2018-11-04T19:20:15.618Z,66.17
2018-11-04T19:22:45.042Z,64.63
2018-11-04T19:25:15.368Z,68.90
2018-11-04T19:27:44.675Z,70.00
2018-11-04T19:30:15.396Z,70.47
2018-11-04T19:32:45.119Z,64.57
2018-11-04T19:35:14.997Z,65.10
2018-11-04T19:37:44.224Z,63.17
2018-11-04T19:40:14.627Z,69.57
2018-11-04T19:42:44.098Z,57.50
2018-11-04T19:45:13.265Z,61.13
2018-11-04T19:47:42.578Z,64.30
2018-11-04T19:50:13.014Z,68.03
2018-11-04T19:52:42.710Z,64.70
2018-11-04T19:55:12.612Z,67.10
2018-11-04T19:57:41.807Z,66.50
2018-11-04T20:00:12.025Z,59.83
2018-11-04T20:02:42.292Z,58.73
2018-11-04T20:05:12.282Z,61.70
2018-11-04T20:07:41.599Z,66.73
2018-11-04T20:10:12.937Z,66.50
2018-11-04T20:12:47.337Z,60.10
2018-11-04T20:15:16.762Z,62.20
2018-11-04T20:17:47.099Z,63.53
2018-11-04T20:20:18.318Z,65.10
2018-11-04T20:22:47.747Z,63.10
2018-11-04T20:25:21.984Z,62.70
2018-11-04T20:27:51.646Z,60.83
2018-11-04T20:30:20.996Z,63.50
2018-11-04T20:32:55.159Z,70.40
2018-11-04T20:35:24.410Z,60.17
2018-11-04T20:37:53.707Z,64.37
2018-11-04T20:40:28.117Z,61.10
2018-11-04T20:42:57.503Z,61.13
2018-11-04T20:45:27.330Z,68.83
2018-11-04T20:48:02.143Z,72.43
2018-11-04T20:50:36.672Z,66.10
2018-11-04T20:53:06.174Z,67.87
2018-11-04T20:55:40.647Z,63.23
2018-11-04T20:58:10.391Z,64.57
2018-11-04T21:00:39.776Z,64.63
2018-11-04T21:03:09.113Z,67.27
2018-11-04T21:05:38.417Z,67.93
2018-11-04T21:08:08.125Z,63.87
2018-11-04T21:10:37.429Z,68.40
2018-11-04T21:13:06.909Z,69.07
2018-11-04T21:15:36.247Z,65.47
2018-11-04T21:18:08.739Z,63.27
2018-11-04T21:20:38.395Z,64.90
2018-11-04T21:23:10.738Z,63.57
2018-11-04T21:25:45.142Z,63.77
2018-11-04T21:28:14.604Z,63.33
2018-11-04T21:31:19.091Z,62.10
2018-11-04T21:33:48.415Z,62.57
2018-11-04T21:36:21.987Z,56.80
2018-11-04T21:39:28.385Z,61.37
2018-11-04T21:45:58.582Z,68.93
2018-11-04T22:03:22.303Z,74.33
2018-11-04T22:30:34.287Z,77.83
2018-11-04T22:33:04.145Z,72.77
2018-11-04T22:35:41.679Z,91.00
2018-11-04T22:38:15.068Z,77.63
2018-11-04T22:40:48.330Z,82.90
2018-11-04T22:43:18.038Z,79.67
2018-11-04T22:45:52.033Z,78.93
2018-11-04T22:48:21.546Z,78.50
2018-11-04T22:50:53.553Z,82.13
2018-11-04T22:53:23.200Z,86.83
2018-11-04T22:55:53.040Z,85.83
2018-11-04T22:58:22.783Z,92.47
2018-11-04T23:00:57.268Z,91.40
2018-11-04T23:03:28.048Z,95.30
2018-11-04T23:05:59.108Z,91.83
2018-11-04T23:08:28.671Z,101.13
2018-11-04T23:10:58.377Z,106.10
2018-11-04T23:13:28.125Z,104.37
2018-11-04T23:15:57.919Z,113.63
2018-11-04T23:18:27.347Z,108.27
2018-11-04T23:20:56.760Z,106.90
2018-11-04T23:23:26.400Z,103.63
2018-11-04T23:25:55.863Z,108.07
2018-11-04T23:28:25.390Z,112.73
2018-11-04T23:30:54.830Z,102.77
2018-11-04T23:33:24.606Z,113.53
2018-11-04T23:35:54.102Z,109.50
2018-11-04T23:38:23.474Z,111.43
2018-11-04T23:40:53.017Z,113.17
2018-11-04T23:43:29.056Z,106.83
2018-11-04T23:45:58.675Z,100.60
2018-11-04T23:48:28.319Z,104.87
2018-11-04T23:50:58.321Z,104.00
2018-11-04T23:53:27.919Z,100.93
2018-11-04T23:56:00.217Z,105.93
2018-11-04T23:58:31.738Z,101.27
